Terminal Aerodrome Forecast
Issued by NWS Twin Cities, MN

Home | Current Version | Previous Version | Graphics & Text | Print | Product List | Glossary On
Versions: 1 2 3 4 5 6 7 8 9 10 11 12 13 14 15 16 17 18 19 20 21 22 23 24 25 26 27 28 29
104
FTUS43 KMPX 260226 AAA
TAFMSP
TAF AMD
KMSP 260226Z 2602/2706 14007KT 6SM -SHRA SCT050 OVC090
     FM260300 14007KT P6SM SCT030 BKN050
     FM261400 15009KT P6SM VCSH SCT020 OVC030
     FM261800 19010KT P6SM SCT030 BKN050 PROB30 2618/2622 -TSRA
      BKN040CB
     FM270000 23009KT P6SM SCT050
     FM270200 24005KT P6SM SCT250=

USA.gov is the U.S. government's official web portal to all federal, state and local government web resources and services.